sensor_id;sensor_type;location;lat;lon;timestamp;pressure;altitude;pressure_sealevel;temperature;humidity
74169;BME280;62523;53.336;83.690;2023-08-21T00:03:33;98992.91;;;14.40;100.00
74169;BME280;62523;53.336;83.690;2023-08-21T00:08:35;98994.63;;;14.41;100.00
74169;BME280;62523;53.336;83.690;2023-08-21T00:13:36;98997.13;;;14.31;100.00
74169;BME280;62523;53.336;83.690;2023-08-21T00:18:38;99006.25;;;14.27;100.00
74169;BME280;62523;53.336;83.690;2023-08-21T00:23:39;99008.44;;;14.22;100.00
74169;BME280;62523;53.336;83.690;2023-08-21T00:28:41;99002.31;;;14.33;100.00
74169;BME280;62523;53.336;83.690;2023-08-21T00:33:43;99018.38;;;14.54;100.00
74169;BME280;62523;53.336;83.690;2023-08-21T00:38:44;99020.47;;;14.84;100.00
74169;BME280;62523;53.336;83.690;2023-08-21T00:43:47;99016.56;;;14.88;100.00
74169;BME280;62523;53.336;83.690;2023-08-21T00:48:49;99025.13;;;15.03;100.00
74169;BME280;62523;53.336;83.690;2023-08-21T00:53:51;99019.84;;;14.81;100.00
74169;BME280;62523;53.336;83.690;2023-08-21T00:58:54;99029.38;;;14.61;100.00
74169;BME280;62523;53.336;83.690;2023-08-21T01:03:56;99029.97;;;14.87;100.00
74169;BME280;62523;53.336;83.690;2023-08-21T01:09:07;99040.59;;;14.87;100.00
74169;BME280;62523;53.336;83.690;2023-08-21T01:14:33;99042.75;;;14.82;100.00
74169;BME280;62523;53.336;83.690;2023-08-21T01:19:43;99048.41;;;15.11;100.00
74169;BME280;62523;53.336;83.690;2023-08-21T01:24:46;99056.13;;;15.03;100.00
74169;BME280;62523;53.336;83.690;2023-08-21T01:29:48;99064.09;;;14.80;100.00
74169;BME280;62523;53.336;83.690;2023-08-21T01:34:51;99072.41;;;14.87;100.00
74169;BME280;62523;53.336;83.690;2023-08-21T01:39:58;99077.00;;;14.85;100.00
74169;BME280;62523;53.336;83.690;2023-08-21T01:45:00;99092.16;;;14.71;100.00
74169;BME280;62523;53.336;83.690;2023-08-21T01:50:05;99103.09;;;14.67;100.00
74169;BME280;62523;53.336;83.690;2023-08-21T01:55:07;99111.13;;;14.54;100.00
74169;BME280;62523;53.336;83.690;2023-08-21T02:00:10;99117.16;;;14.56;100.00
74169;BME280;62523;53.336;83.690;2023-08-21T02:05:16;99116.56;;;14.52;100.00
74169;BME280;62523;53.336;83.690;2023-08-21T02:10:17;99121.47;;;14.46;100.00
74169;BME280;62523;53.336;83.690;2023-08-21T02:15:20;99121.00;;;14.52;100.00
74169;BME280;62523;53.336;83.690;2023-08-21T02:20:23;99119.63;;;14.70;100.00
74169;BME280;62523;53.336;83.690;2023-08-21T02:25:24;99118.16;;;14.55;100.00
74169;BME280;62523;53.336;83.690;2023-08-21T02:30:27;99131.13;;;14.82;100.00
74169;BME280;62523;53.336;83.690;2023-08-21T02:35:29;99123.91;;;14.95;100.00
74169;BME280;62523;53.336;83.690;2023-08-21T02:40:30;99138.91;;;14.72;100.00
74169;BME280;62523;53.336;83.690;2023-08-21T02:45:32;99147.31;;;14.55;100.00
74169;BME280;62523;53.336;83.690;2023-08-21T02:50:33;99145.44;;;14.80;100.00
74169;BME280;62523;53.336;83.690;2023-08-21T02:55:36;99139.16;;;14.69;100.00
74169;BME280;62523;53.336;83.690;2023-08-21T03:00:37;99148.91;;;14.69;100.00
74169;BME280;62523;53.336;83.690;2023-08-21T03:05:47;99146.66;;;14.87;100.00
74169;BME280;62523;53.336;83.690;2023-08-21T03:10:48;99152.25;;;15.29;100.00
74169;BME280;62523;53.336;83.690;2023-08-21T03:15:50;99152.50;;;15.26;100.00
74169;BME280;62523;53.336;83.690;2023-08-21T03:20:52;99149.84;;;15.26;100.00
74169;BME280;62523;53.336;83.690;2023-08-21T03:25:53;99151.88;;;15.22;100.00
74169;BME280;62523;53.336;83.690;2023-08-21T03:30:55;99158.41;;;15.29;100.00
74169;BME280;62523;53.336;83.690;2023-08-21T03:35:56;99157.91;;;15.02;100.00
74169;BME280;62523;53.336;83.690;2023-08-21T03:40:59;99160.09;;;15.08;100.00
74169;BME280;62523;53.336;83.690;2023-08-21T03:46:01;99171.06;;;15.26;100.00
74169;BME280;62523;53.336;83.690;2023-08-21T03:51:03;99168.03;;;15.42;100.00
74169;BME280;62523;53.336;83.690;2023-08-21T03:56:05;99153.69;;;15.78;100.00
74169;BME280;62523;53.336;83.690;2023-08-21T04:01:07;99150.69;;;15.49;100.00
74169;BME280;62523;53.336;83.690;2023-08-21T04:06:09;99152.25;;;15.29;100.00
74169;BME280;62523;53.336;83.690;2023-08-21T04:11:10;99159.00;;;15.67;100.00
74169;BME280;62523;53.336;83.690;2023-08-21T04:16:12;99152.66;;;16.02;100.00
74169;BME280;62523;53.336;83.690;2023-08-21T04:21:16;99143.41;;;16.28;100.00
74169;BME280;62523;53.336;83.690;2023-08-21T04:26:17;99146.94;;;15.85;100.00
74169;BME280;62523;53.336;83.690;2023-08-21T04:31:19;99143.53;;;16.27;100.00
74169;BME280;62523;53.336;83.690;2023-08-21T04:36:23;99148.91;;;16.36;100.00
74169;BME280;62523;53.336;83.690;2023-08-21T04:41:25;99147.75;;;16.29;100.00
74169;BME280;62523;53.336;83.690;2023-08-21T04:46:27;99154.72;;;16.09;100.00
74169;BME280;62523;53.336;83.690;2023-08-21T04:51:29;99175.28;;;15.62;100.00
74169;BME280;62523;53.336;83.690;2023-08-21T04:56:33;99169.72;;;15.76;100.00
74169;BME280;62523;53.336;83.690;2023-08-21T05:01:35;99170.34;;;15.80;100.00
74169;BME280;62523;53.336;83.690;2023-08-21T05:06:37;99170.47;;;15.90;100.00
74169;BME280;62523;53.336;83.690;2023-08-21T05:11:38;99163.97;;;16.15;100.00
74169;BME280;62523;53.336;83.690;2023-08-21T05:16:40;99160.81;;;16.21;100.00
74169;BME280;62523;53.336;83.690;2023-08-21T05:21:43;99156.88;;;16.48;100.00
74169;BME280;62523;53.336;83.690;2023-08-21T05:26:45;99159.56;;;16.36;100.00
74169;BME280;62523;53.336;83.690;2023-08-21T05:31:47;99176.91;;;16.08;100.00
74169;BME280;62523;53.336;83.690;2023-08-21T05:36:48;99170.50;;;16.22;100.00
74169;BME280;62523;53.336;83.690;2023-08-21T05:41:50;99177.31;;;16.36;100.00
74169;BME280;62523;53.336;83.690;2023-08-21T05:46:53;99182.19;;;16.20;100.00
74169;BME280;62523;53.336;83.690;2023-08-21T05:51:56;99179.53;;;16.31;100.00
74169;BME280;62523;53.336;83.690;2023-08-21T05:56:59;99179.91;;;16.15;100.00
74169;BME280;62523;53.336;83.690;2023-08-21T06:02:01;99184.91;;;16.08;100.00
74169;BME280;62523;53.336;83.690;2023-08-21T06:07:03;99184.94;;;15.97;100.00
74169;BME280;62523;53.336;83.690;2023-08-21T06:12:05;99187.06;;;16.14;100.00
74169;BME280;62523;53.336;83.690;2023-08-21T06:17:09;99174.78;;;16.34;100.00
74169;BME280;62523;53.336;83.690;2023-08-21T06:22:10;99170.34;;;16.24;100.00
74169;BME280;62523;53.336;83.690;2023-08-21T06:27:12;99163.78;;;16.60;100.00
74169;BME280;62523;53.336;83.690;2023-08-21T06:32:14;99154.75;;;16.84;100.00
74169;BME280;62523;53.336;83.690;2023-08-21T06:37:15;99150.75;;;17.20;100.00
74169;BME280;62523;53.336;83.690;2023-08-21T06:42:17;99149.84;;;17.10;100.00
74169;BME280;62523;53.336;83.690;2023-08-21T06:47:23;99141.88;;;16.68;100.00
74169;BME280;62523;53.336;83.690;2023-08-21T06:52:25;99144.09;;;17.05;100.00
74169;BME280;62523;53.336;83.690;2023-08-21T06:57:27;99143.25;;;17.35;100.00
74169;BME280;62523;53.336;83.690;2023-08-21T07:02:29;99131.31;;;18.39;100.00
74169;BME280;62523;53.336;83.690;2023-08-21T07:07:31;99131.03;;;18.33;100.00
74169;BME280;62523;53.336;83.690;2023-08-21T07:12:33;99126.78;;;18.30;100.00
74169;BME280;62523;53.336;83.690;2023-08-21T07:17:36;99131.28;;;18.78;100.00
74169;BME280;62523;53.336;83.690;2023-08-21T07:22:38;99127.38;;;18.24;100.00
74169;BME280;62523;53.336;83.690;2023-08-21T07:27:40;99128.03;;;18.75;100.00
74169;BME280;62523;53.336;83.690;2023-08-21T07:32:42;99127.06;;;18.17;100.00
74169;BME280;62523;53.336;83.690;2023-08-21T07:37:45;99131.28;;;18.10;100.00
74169;BME280;62523;53.336;83.690;2023-08-21T07:42:47;99135.66;;;18.11;100.00
74169;BME280;62523;53.336;83.690;2023-08-21T07:47:48;99136.06;;;18.16;99.21
74169;BME280;62523;53.336;83.690;2023-08-21T07:52:50;99133.94;;;18.10;99.25
74169;BME280;62523;53.336;83.690;2023-08-21T07:57:51;99127.91;;;18.47;92.10
74169;BME280;62523;53.336;83.690;2023-08-21T08:02:53;99133.13;;;18.78;93.47
74169;BME280;62523;53.336;83.690;2023-08-21T08:07:55;99137.03;;;18.64;97.31
74169;BME280;62523;53.336;83.690;2023-08-21T08:12:57;99134.50;;;18.62;95.00
74169;BME280;62523;53.336;83.690;2023-08-21T08:17:59;99128.97;;;19.03;92.52
74169;BME280;62523;53.336;83.690;2023-08-21T08:23:01;99136.47;;;18.90;91.37
74169;BME280;62523;53.336;83.690;2023-08-21T08:28:03;99151.78;;;18.88;93.50
74169;BME280;62523;53.336;83.690;2023-08-21T08:33:05;99151.38;;;18.63;94.79
74169;BME280;62523;53.336;83.690;2023-08-21T08:38:06;99148.41;;;18.66;95.81
74169;BME280;62523;53.336;83.690;2023-08-21T08:43:08;99145.50;;;19.16;93.11
74169;BME280;62523;53.336;83.690;2023-08-21T08:48:10;99150.38;;;19.40;92.88
74169;BME280;62523;53.336;83.690;2023-08-21T08:53:12;99148.53;;;18.94;96.00
74169;BME280;62523;53.336;83.690;2023-08-21T08:58:14;99141.47;;;19.40;93.97
74169;BME280;62523;53.336;83.690;2023-08-21T09:03:15;99135.16;;;19.78;89.21
74169;BME280;62523;53.336;83.690;2023-08-21T09:08:17;99137.09;;;19.11;91.31
74169;BME280;62523;53.336;83.690;2023-08-21T09:13:19;99134.16;;;19.79;89.15
74169;BME280;62523;53.336;83.690;2023-08-21T09:18:21;99125.38;;;19.32;88.88
74169;BME280;62523;53.336;83.690;2023-08-21T09:23:23;99123.94;;;19.37;89.50
74169;BME280;62523;53.336;83.690;2023-08-21T09:28:25;99118.75;;;19.91;86.87
74169;BME280;62523;53.336;83.690;2023-08-21T09:33:26;99128.31;;;19.29;88.66
74169;BME280;62523;53.336;83.690;2023-08-21T09:38:28;99147.41;;;18.77;94.97
74169;BME280;62523;53.336;83.690;2023-08-21T09:43:30;99151.94;;;18.37;99.54
74169;BME280;62523;53.336;83.690;2023-08-21T09:48:33;99144.19;;;18.63;97.27
74169;BME280;62523;53.336;83.690;2023-08-21T09:53:35;99128.88;;;18.56;95.19
74169;BME280;62523;53.336;83.690;2023-08-21T09:58:55;99132.00;;;18.32;95.43
74169;BME280;62523;53.336;83.690;2023-08-21T10:03:58;99122.03;;;18.82;93.31
74169;BME280;62523;53.336;83.690;2023-08-21T10:09:04;99130.16;;;18.61;92.72
74169;BME280;62523;53.336;83.690;2023-08-21T10:14:06;99138.59;;;18.57;94.41
74169;BME280;62523;53.336;83.690;2023-08-21T10:19:14;99138.47;;;18.78;93.27
74169;BME280;62523;53.336;83.690;2023-08-21T10:24:33;99141.66;;;18.72;92.71
74169;BME280;62523;53.336;83.690;2023-08-21T10:29:34;99130.16;;;18.52;94.89
74169;BME280;62523;53.336;83.690;2023-08-21T10:34:38;99135.63;;;18.89;96.16
74169;BME280;62523;53.336;83.690;2023-08-21T10:39:55;99134.03;;;19.06;99.18
74169;BME280;62523;53.336;83.690;2023-08-21T10:44:57;99134.31;;;19.03;98.04
74169;BME280;62523;53.336;83.690;2023-08-21T10:50:06;99143.63;;;18.89;99.53
74169;BME280;62523;53.336;83.690;2023-08-21T10:55:09;99137.81;;;19.13;95.31
74169;BME280;62523;53.336;83.690;2023-08-21T11:00:12;99144.06;;;18.85;97.34
74169;BME280;62523;53.336;83.690;2023-08-21T11:05:15;99155.28;;;18.49;100.00
74169;BME280;62523;53.336;83.690;2023-08-21T11:10:21;99146.31;;;18.89;99.39
74169;BME280;62523;53.336;83.690;2023-08-21T11:15:25;99135.78;;;18.78;97.83
74169;BME280;62523;53.336;83.690;2023-08-21T11:20:29;99134.53;;;18.53;98.88
74169;BME280;62523;53.336;83.690;2023-08-21T11:25:30;99131.72;;;18.45;97.57
74169;BME280;62523;53.336;83.690;2023-08-21T11:30:32;99129.19;;;18.53;100.00
74169;BME280;62523;53.336;83.690;2023-08-21T11:35:34;99137.31;;;18.51;100.00
74169;BME280;62523;53.336;83.690;2023-08-21T11:40:36;99139.00;;;18.23;100.00
74169;BME280;62523;53.336;83.690;2023-08-21T11:45:47;99131.56;;;18.17;100.00
74169;BME280;62523;53.336;83.690;2023-08-21T11:50:48;99127.91;;;18.08;100.00
74169;BME280;62523;53.336;83.690;2023-08-21T11:55:50;99127.63;;;18.01;100.00
74169;BME280;62523;53.336;83.690;2023-08-21T12:00:52;99116.69;;;18.05;100.00
74169;BME280;62523;53.336;83.690;2023-08-21T12:05:54;99128.91;;;18.17;100.00
74169;BME280;62523;53.336;83.690;2023-08-21T12:10:56;99127.84;;;17.79;100.00
74169;BME280;62523;53.336;83.690;2023-08-21T12:15:58;99135.94;;;17.58;100.00
74169;BME280;62523;53.336;83.690;2023-08-21T12:20:59;99143.50;;;17.63;100.00
74169;BME280;62523;53.336;83.690;2023-08-21T12:26:01;99131.25;;;17.50;100.00
74169;BME280;62523;53.336;83.690;2023-08-21T12:31:03;99138.78;;;17.35;100.00
74169;BME280;62523;53.336;83.690;2023-08-21T12:36:04;99142.78;;;17.20;100.00
74169;BME280;62523;53.336;83.690;2023-08-21T12:41:06;99151.63;;;17.61;100.00
74169;BME280;62523;53.336;83.690;2023-08-21T12:46:08;99143.22;;;17.96;100.00
74169;BME280;62523;53.336;83.690;2023-08-21T12:51:09;99146.63;;;17.77;100.00
74169;BME280;62523;53.336;83.690;2023-08-21T12:56:11;99143.59;;;17.82;100.00
74169;BME280;62523;53.336;83.690;2023-08-21T13:01:14;99141.97;;;17.70;100.00
74169;BME280;62523;53.336;83.690;2023-08-21T13:06:18;99155.44;;;17.28;100.00
74169;BME280;62523;53.336;83.690;2023-08-21T13:11:20;99160.75;;;16.65;100.00
74169;BME280;62523;53.336;83.690;2023-08-21T13:16:21;99163.97;;;16.47;100.00
74169;BME280;62523;53.336;83.690;2023-08-21T13:21:23;99171.94;;;16.26;100.00
74169;BME280;62523;53.336;83.690;2023-08-21T13:26:24;99177.75;;;16.09;100.00
74169;BME280;62523;53.336;83.690;2023-08-21T13:31:26;99190.34;;;15.95;100.00
74169;BME280;62523;53.336;83.690;2023-08-21T13:36:29;99182.66;;;15.81;100.00
74169;BME280;62523;53.336;83.690;2023-08-21T13:41:31;99197.00;;;15.67;100.00
74169;BME280;62523;53.336;83.690;2023-08-21T13:46:33;99203.66;;;15.62;100.00
74169;BME280;62523;53.336;83.690;2023-08-21T13:51:35;99208.00;;;15.51;100.00
74169;BME280;62523;53.336;83.690;2023-08-21T13:56:36;99211.50;;;15.41;100.00
74169;BME280;62523;53.336;83.690;2023-08-21T14:01:38;99202.69;;;15.40;100.00
74169;BME280;62523;53.336;83.690;2023-08-21T14:06:40;99212.69;;;15.36;100.00
74169;BME280;62523;53.336;83.690;2023-08-21T14:11:41;99217.28;;;15.23;100.00
74169;BME280;62523;53.336;83.690;2023-08-21T14:16:45;99210.50;;;15.19;100.00
74169;BME280;62523;53.336;83.690;2023-08-21T14:21:46;99218.56;;;15.18;100.00
74169;BME280;62523;53.336;83.690;2023-08-21T14:26:48;99220.97;;;15.09;100.00
74169;BME280;62523;53.336;83.690;2023-08-21T14:31:49;99215.66;;;15.09;100.00
74169;BME280;62523;53.336;83.690;2023-08-21T14:36:54;99214.81;;;14.98;100.00
74169;BME280;62523;53.336;83.690;2023-08-21T14:41:58;99206.72;;;14.99;100.00
74169;BME280;62523;53.336;83.690;2023-08-21T14:46:59;99209.22;;;14.89;100.00
74169;BME280;62523;53.336;83.690;2023-08-21T14:52:01;99216.88;;;14.70;100.00
74169;BME280;62523;53.336;83.690;2023-08-21T14:57:03;99210.78;;;14.81;100.00
74169;BME280;62523;53.336;83.690;2023-08-21T15:02:04;99202.44;;;14.74;100.00
74169;BME280;62523;53.336;83.690;2023-08-21T15:07:06;99196.31;;;14.73;100.00
74169;BME280;62523;53.336;83.690;2023-08-21T15:12:08;99198.06;;;14.62;100.00
74169;BME280;62523;53.336;83.690;2023-08-21T15:17:09;99201.56;;;14.49;100.00
74169;BME280;62523;53.336;83.690;2023-08-21T15:22:11;99199.56;;;14.53;100.00
74169;BME280;62523;53.336;83.690;2023-08-21T15:27:13;99211.59;;;14.46;100.00
74169;BME280;62523;53.336;83.690;2023-08-21T15:32:14;99208.06;;;14.45;100.00
74169;BME280;62523;53.336;83.690;2023-08-21T15:37:16;99204.13;;;14.51;100.00
74169;BME280;62523;53.336;83.690;2023-08-21T15:42:18;99205.66;;;14.42;100.00
74169;BME280;62523;53.336;83.690;2023-08-21T15:47:19;99204.72;;;14.43;100.00
74169;BME280;62523;53.336;83.690;2023-08-21T15:52:21;99203.34;;;14.38;100.00
74169;BME280;62523;53.336;83.690;2023-08-21T15:57:22;99212.59;;;14.32;100.00
74169;BME280;62523;53.336;83.690;2023-08-21T16:02:26;99203.56;;;14.34;100.00
74169;BME280;62523;53.336;83.690;2023-08-21T16:07:27;99203.97;;;14.41;100.00
74169;BME280;62523;53.336;83.690;2023-08-21T16:12:30;99196.81;;;14.30;100.00
74169;BME280;62523;53.336;83.690;2023-08-21T16:17:31;99196.91;;;14.29;100.00
74169;BME280;62523;53.336;83.690;2023-08-21T16:22:34;99202.22;;;14.29;100.00
74169;BME280;62523;53.336;83.690;2023-08-21T16:27:35;99201.84;;;14.22;100.00
74169;BME280;62523;53.336;83.690;2023-08-21T16:32:37;99199.28;;;14.21;100.00
74169;BME280;62523;53.336;83.690;2023-08-21T16:37:38;99195.16;;;14.17;100.00
74169;BME280;62523;53.336;83.690;2023-08-21T16:42:40;99188.41;;;14.12;100.00
74169;BME280;62523;53.336;83.690;2023-08-21T16:47:41;99183.88;;;14.02;100.00
74169;BME280;62523;53.336;83.690;2023-08-21T16:52:46;99185.44;;;14.04;100.00
74169;BME280;62523;53.336;83.690;2023-08-21T16:57:48;99184.28;;;14.08;100.00
74169;BME280;62523;53.336;83.690;2023-08-21T17:02:49;99169.97;;;14.11;100.00
74169;BME280;62523;53.336;83.690;2023-08-21T17:07:53;99182.06;;;14.02;100.00
74169;BME280;62523;53.336;83.690;2023-08-21T17:12:55;99176.34;;;14.08;100.00
74169;BME280;62523;53.336;83.690;2023-08-21T17:17:59;99173.28;;;14.02;100.00
74169;BME280;62523;53.336;83.690;2023-08-21T17:23:03;99178.09;;;13.97;100.00
74169;BME280;62523;53.336;83.690;2023-08-21T17:28:04;99175.88;;;13.90;100.00
74169;BME280;62523;53.336;83.690;2023-08-21T17:33:07;99174.06;;;13.91;100.00
74169;BME280;62523;53.336;83.690;2023-08-21T17:38:10;99178.78;;;13.75;100.00
74169;BME280;62523;53.336;83.690;2023-08-21T17:43:11;99181.75;;;13.70;100.00
74169;BME280;62523;53.336;83.690;2023-08-21T17:48:13;99174.25;;;13.77;100.00
74169;BME280;62523;53.336;83.690;2023-08-21T17:53:15;99164.94;;;13.58;100.00
74169;BME280;62523;53.336;83.690;2023-08-21T17:58:16;99157.19;;;13.68;100.00
74169;BME280;62523;53.336;83.690;2023-08-21T18:03:18;99145.38;;;13.48;100.00
74169;BME280;62523;53.336;83.690;2023-08-21T18:08:20;99147.53;;;13.43;100.00
74169;BME280;62523;53.336;83.690;2023-08-21T18:13:22;99139.28;;;13.35;100.00
74169;BME280;62523;53.336;83.690;2023-08-21T18:18:24;99133.63;;;13.26;100.00
74169;BME280;62523;53.336;83.690;2023-08-21T18:23:29;99127.59;;;13.24;100.00
74169;BME280;62523;53.336;83.690;2023-08-21T18:28:31;99125.38;;;13.18;100.00
74169;BME280;62523;53.336;83.690;2023-08-21T18:33:33;99128.25;;;13.15;100.00
74169;BME280;62523;53.336;83.690;2023-08-21T18:38:35;99126.38;;;13.30;100.00
74169;BME280;62523;53.336;83.690;2023-08-21T18:43:36;99117.25;;;13.21;100.00
74169;BME280;62523;53.336;83.690;2023-08-21T18:48:38;99117.47;;;13.18;100.00
74169;BME280;62523;53.336;83.690;2023-08-21T18:53:42;99107.19;;;13.14;100.00
74169;BME280;62523;53.336;83.690;2023-08-21T18:58:44;99103.22;;;12.95;100.00
74169;BME280;62523;53.336;83.690;2023-08-21T19:03:46;99110.94;;;12.98;100.00
74169;BME280;62523;53.336;83.690;2023-08-21T19:08:48;99105.84;;;13.08;100.00
74169;BME280;62523;53.336;83.690;2023-08-21T19:13:49;99102.56;;;13.17;100.00
74169;BME280;62523;53.336;83.690;2023-08-21T19:18:51;99087.22;;;13.09;100.00
74169;BME280;62523;53.336;83.690;2023-08-21T19:23:53;99072.75;;;13.02;100.00
74169;BME280;62523;53.336;83.690;2023-08-21T19:28:54;99073.41;;;12.93;100.00
74169;BME280;62523;53.336;83.690;2023-08-21T19:33:57;99087.66;;;12.90;100.00
74169;BME280;62523;53.336;83.690;2023-08-21T19:38:58;99082.91;;;12.83;100.00
74169;BME280;62523;53.336;83.690;2023-08-21T19:44:00;99086.50;;;12.69;100.00
74169;BME280;62523;53.336;83.690;2023-08-21T19:49:02;99077.53;;;12.59;100.00
74169;BME280;62523;53.336;83.690;2023-08-21T19:54:04;99076.88;;;12.55;100.00
74169;BME280;62523;53.336;83.690;2023-08-21T19:59:06;99076.66;;;12.58;100.00
74169;BME280;62523;53.336;83.690;2023-08-21T20:04:08;99075.31;;;12.65;100.00
74169;BME280;62523;53.336;83.690;2023-08-21T20:09:09;99066.72;;;12.62;100.00
74169;BME280;62523;53.336;83.690;2023-08-21T20:14:11;99056.25;;;12.60;100.00
74169;BME280;62523;53.336;83.690;2023-08-21T20:19:13;99061.25;;;12.65;100.00
74169;BME280;62523;53.336;83.690;2023-08-21T20:24:14;99054.50;;;12.61;100.00
74169;BME280;62523;53.336;83.690;2023-08-21T20:29:16;99047.81;;;12.55;100.00
74169;BME280;62523;53.336;83.690;2023-08-21T20:34:17;99047.81;;;12.42;100.00
74169;BME280;62523;53.336;83.690;2023-08-21T20:39:19;99043.50;;;12.54;100.00
74169;BME280;62523;53.336;83.690;2023-08-21T20:44:20;99050.13;;;12.47;100.00
74169;BME280;62523;53.336;83.690;2023-08-21T20:49:22;99043.91;;;12.48;100.00
74169;BME280;62523;53.336;83.690;2023-08-21T20:54:23;99039.13;;;12.40;100.00
74169;BME280;62523;53.336;83.690;2023-08-21T20:59:25;99033.00;;;12.14;100.00
74169;BME280;62523;53.336;83.690;2023-08-21T21:04:27;99034.16;;;12.23;100.00
74169;BME280;62523;53.336;83.690;2023-08-21T21:09:28;99035.34;;;12.32;100.00
74169;BME280;62523;53.336;83.690;2023-08-21T21:14:34;99029.38;;;11.90;100.00
74169;BME280;62523;53.336;83.690;2023-08-21T21:19:35;99027.72;;;11.87;100.00
74169;BME280;62523;53.336;83.690;2023-08-21T21:24:37;99026.56;;;12.18;100.00
74169;BME280;62523;53.336;83.690;2023-08-21T21:29:38;99029.59;;;11.99;100.00
74169;BME280;62523;53.336;83.690;2023-08-21T21:34:40;99030.41;;;12.00;100.00
74169;BME280;62523;53.336;83.690;2023-08-21T21:39:41;99022.84;;;12.08;100.00
74169;BME280;62523;53.336;83.690;2023-08-21T21:44:43;99017.47;;;12.09;100.00
74169;BME280;62523;53.336;83.690;2023-08-21T21:49:44;99024.19;;;11.74;100.00
74169;BME280;62523;53.336;83.690;2023-08-21T21:54:46;99029.81;;;11.82;100.00
74169;BME280;62523;53.336;83.690;2023-08-21T21:59:47;99020.69;;;11.60;100.00
74169;BME280;62523;53.336;83.690;2023-08-21T22:04:49;99016.19;;;11.75;100.00
74169;BME280;62523;53.336;83.690;2023-08-21T22:09:50;99011.38;;;11.55;100.00
74169;BME280;62523;53.336;83.690;2023-08-21T22:14:52;99008.75;;;11.67;100.00
74169;BME280;62523;53.336;83.690;2023-08-21T22:19:53;99015.03;;;11.79;100.00
74169;BME280;62523;53.336;83.690;2023-08-21T22:24:55;99012.06;;;11.71;100.00
74169;BME280;62523;53.336;83.690;2023-08-21T22:29:57;99007.63;;;11.72;100.00
74169;BME280;62523;53.336;83.690;2023-08-21T22:34:58;99017.56;;;11.68;100.00
74169;BME280;62523;53.336;83.690;2023-08-21T22:40:00;99009.22;;;11.74;100.00
74169;BME280;62523;53.336;83.690;2023-08-21T22:45:02;99005.69;;;11.61;100.00
74169;BME280;62523;53.336;83.690;2023-08-21T22:50:07;98991.00;;;11.57;100.00
74169;BME280;62523;53.336;83.690;2023-08-21T22:55:09;98991.34;;;11.65;100.00
74169;BME280;62523;53.336;83.690;2023-08-21T23:00:11;98983.00;;;11.58;100.00
74169;BME280;62523;53.336;83.690;2023-08-21T23:05:13;98981.81;;;11.50;100.00
74169;BME280;62523;53.336;83.690;2023-08-21T23:10:14;98982.47;;;11.53;100.00
74169;BME280;62523;53.336;83.690;2023-08-21T23:15:16;98985.63;;;11.58;100.00
74169;BME280;62523;53.336;83.690;2023-08-21T23:20:19;98977.44;;;11.36;100.00
74169;BME280;62523;53.336;83.690;2023-08-21T23:25:21;98969.31;;;11.39;100.00
74169;BME280;62523;53.336;83.690;2023-08-21T23:30:23;98972.91;;;11.38;100.00
74169;BME280;62523;53.336;83.690;2023-08-21T23:35:24;98962.06;;;11.42;100.00
74169;BME280;62523;53.336;83.690;2023-08-21T23:40:26;98971.34;;;11.48;100.00
74169;BME280;62523;53.336;83.690;2023-08-21T23:45:27;98959.66;;;11.52;100.00
74169;BME280;62523;53.336;83.690;2023-08-21T23:50:29;98963.56;;;11.59;100.00
74169;BME280;62523;53.336;83.690;2023-08-21T23:55:35;98958.41;;;11.58;100.00
